< < Back
Terminal Aerodrome Forecast


Current Version              Previous Versions:   1  2  3  4  5  6  7  8  9  

Terminal Aerodrome Forecast

772
FTUS42 KGSP 270540
TAFGSP
TAF
KGSP 270540Z 2706/2806 02003KT P6SM FEW110
     FM271700 08007KT P6SM SCT050 PROB30 2720/2724 4SM -TSRA
      OVC050CB
     FM280300 05006KT P6SM SCT045=

Latest METAR

780
SAUS70 KWBC 272200 RRH
MTRGSP
METAR KGSP 272153Z 15004KT 10SM CLR 33/20 A3006 RMK AO2 SLP166
T03280200


USA.gov is the U.S. government's official web portal to all federal, state and local government web resources and services.